createdAt,value
2019-02-12T00:01:11.556Z,1.80
2019-02-12T00:03:51.218Z,1.80
2019-02-12T00:06:31.286Z,1.80
2019-02-12T00:09:11.146Z,1.60
2019-02-12T00:11:50.952Z,1.60
2019-02-12T00:14:33.496Z,1.50
2019-02-12T00:17:12.976Z,1.40
2019-02-12T00:19:54.839Z,1.30
2019-02-12T00:22:35.142Z,1.30
2019-02-12T00:25:15.279Z,1.20
2019-02-12T00:27:55.176Z,1.20
2019-02-12T00:30:35.471Z,1.00
2019-02-12T00:33:15.564Z,1.00
2019-02-12T00:35:55.581Z,1.00
2019-02-12T00:38:35.791Z,1.00
2019-02-12T00:41:15.911Z,1.20
2019-02-12T00:43:56.116Z,1.30
2019-02-12T00:46:36.277Z,1.40
2019-02-12T00:49:16.248Z,1.50
2019-02-12T00:51:56.076Z,1.50
2019-02-12T00:54:36.013Z,1.60
2019-02-12T00:57:16.258Z,1.70
2019-02-12T00:59:56.527Z,1.80
2019-02-12T01:02:38.611Z,1.90
2019-02-12T01:05:18.979Z,1.90
2019-02-12T01:07:59.294Z,1.90
2019-02-12T01:10:39.259Z,1.80
2019-02-12T01:13:19.198Z,1.80
2019-02-12T01:15:59.185Z,1.80
2019-02-12T01:18:39.384Z,1.80
2019-02-12T01:21:25.990Z,1.90
2019-02-12T01:24:01.601Z,2.00
2019-02-12T01:26:41.418Z,2.10
2019-02-12T01:29:22.098Z,2.10
2019-02-12T01:32:01.650Z,2.10
2019-02-12T01:37:10.522Z,2.20
2019-02-12T01:39:57.186Z,2.30
2019-02-12T01:42:36.866Z,2.30
2019-02-12T01:45:16.901Z,2.40
2019-02-12T01:47:56.211Z,2.40
2019-02-12T01:50:36.236Z,2.40
2019-02-12T01:53:16.590Z,2.40
2019-02-12T01:55:56.454Z,2.50
2019-02-12T01:58:36.701Z,2.50
2019-02-12T02:01:17.303Z,2.60
2019-02-12T02:03:57.076Z,2.70
2019-02-12T02:06:37.098Z,2.70
2019-02-12T02:09:17.333Z,2.80
2019-02-12T02:11:57.231Z,2.80
2019-02-12T02:14:37.653Z,2.70
2019-02-12T02:17:17.903Z,2.60
2019-02-12T02:22:37.714Z,2.70
2019-02-12T02:25:18.009Z,2.60
2019-02-12T02:27:57.881Z,2.60
2019-02-12T02:30:37.260Z,2.60
2019-02-12T02:33:17.308Z,2.60
2019-02-12T02:35:57.307Z,2.40
2019-02-12T02:38:37.454Z,2.50
2019-02-12T02:41:17.658Z,2.50
2019-02-12T02:43:59.007Z,2.30
2019-02-12T02:46:39.206Z,2.20
2019-02-12T02:49:19.187Z,2.20
2019-02-12T02:51:58.670Z,2.20
2019-02-12T02:54:38.729Z,2.30
2019-02-12T02:57:18.697Z,2.10
2019-02-12T02:59:58.699Z,2.10
2019-02-12T03:02:38.826Z,2.10
2019-02-12T03:05:19.038Z,2.10
2019-02-12T03:07:58.663Z,2.10
2019-02-12T03:10:38.836Z,2.20
2019-02-12T03:13:18.668Z,2.20
2019-02-12T03:15:59.101Z,2.30
2019-02-12T03:18:38.941Z,2.30
2019-02-12T03:21:19.265Z,2.40
2019-02-12T03:23:59.367Z,2.40
2019-02-12T03:26:39.265Z,2.40
2019-02-12T03:29:06.748Z,2.50
2019-02-12T03:31:53.462Z,2.50
2019-02-12T03:34:33.298Z,2.50
2019-02-12T03:37:13.436Z,2.60
2019-02-12T03:39:53.378Z,2.50
2019-02-12T03:42:33.524Z,2.50
2019-02-12T03:45:13.786Z,2.50
2019-02-12T03:50:40.019Z,2.70
2019-02-12T03:53:19.940Z,2.70
2019-02-12T03:56:00.100Z,2.70
2019-02-12T03:58:40.014Z,2.80
2019-02-12T04:01:20.084Z,2.70
2019-02-12T04:03:59.984Z,2.70
2019-02-12T04:06:39.981Z,2.70
2019-02-12T04:09:20.250Z,2.80
2019-02-12T04:12:00.271Z,2.70
2019-02-12T04:14:40.254Z,2.70
2019-02-12T04:17:20.395Z,2.60
2019-02-12T04:22:39.818Z,2.70
2019-02-12T04:25:19.383Z,2.70
2019-02-12T04:27:59.609Z,2.70
2019-02-12T04:30:39.675Z,2.70
2019-02-12T04:33:19.584Z,2.60
2019-02-12T04:35:59.795Z,2.60
2019-02-12T04:38:39.886Z,2.60
2019-02-12T04:41:19.839Z,2.60
2019-02-12T04:44:00.038Z,2.60
2019-02-12T04:46:39.888Z,2.70
2019-02-12T04:49:19.763Z,2.60
2019-02-12T04:54:43.229Z,2.50
2019-02-12T04:57:23.170Z,2.50
2019-02-12T05:00:03.187Z,2.70
2019-02-12T05:02:43.291Z,2.80
2019-02-12T05:05:23.415Z,2.80
2019-02-12T05:08:03.128Z,2.80
2019-02-12T05:10:43.064Z,2.70
2019-02-12T05:13:29.889Z,2.60
2019-02-12T05:16:09.716Z,2.60
2019-02-12T05:18:49.553Z,2.50
2019-02-12T05:21:29.386Z,2.60
2019-02-12T05:24:09.456Z,2.60
2019-02-12T05:26:49.729Z,2.60
2019-02-12T05:29:30.032Z,2.60
2019-02-12T05:32:09.926Z,2.60
2019-02-12T05:34:49.839Z,2.60
2019-02-12T05:40:11.043Z,2.60
2019-02-12T05:42:51.547Z,2.60
2019-02-12T05:45:31.177Z,2.60
2019-02-12T05:48:11.337Z,2.60
2019-02-12T05:50:52.838Z,2.70
2019-02-12T05:53:32.667Z,2.70
2019-02-12T05:56:12.754Z,2.70
2019-02-12T05:58:52.750Z,2.70
2019-02-12T06:01:32.796Z,2.60
2019-02-12T06:04:13.159Z,2.50
2019-02-12T06:06:53.004Z,2.50
2019-02-12T06:09:33.039Z,2.40
2019-02-12T06:15:04.450Z,2.40
2019-02-12T06:17:51.299Z,2.50
2019-02-12T06:20:31.481Z,2.60
2019-02-12T06:23:12.148Z,2.60
2019-02-12T06:25:52.307Z,2.50
2019-02-12T06:28:32.399Z,2.50
2019-02-12T06:31:12.471Z,2.50
2019-02-12T06:33:52.638Z,2.50
2019-02-12T06:36:32.575Z,2.50
2019-02-12T06:39:12.932Z,2.50
2019-02-12T06:41:52.915Z,2.50
2019-02-12T06:44:32.775Z,2.50
2019-02-12T06:47:13.020Z,2.50
2019-02-12T06:49:53.181Z,2.50
2019-02-12T06:52:33.623Z,2.50
2019-02-12T06:55:13.434Z,2.50
2019-02-12T06:57:53.372Z,2.50
2019-02-12T07:00:33.450Z,2.50
2019-02-12T07:03:13.440Z,2.50
2019-02-12T07:05:57.221Z,2.50
2019-02-12T07:08:37.492Z,2.60
2019-02-12T07:11:17.636Z,2.60
2019-02-12T07:13:58.304Z,2.60
2019-02-12T07:16:37.766Z,2.70
2019-02-12T07:19:18.199Z,2.60
2019-02-12T07:21:57.956Z,2.60
2019-02-12T07:24:38.058Z,2.60
2019-02-12T07:27:18.371Z,2.60
2019-02-12T07:29:58.373Z,2.60
2019-02-12T07:32:38.107Z,2.70
2019-02-12T07:38:13.283Z,2.80
2019-02-12T07:40:53.246Z,2.80
2019-02-12T07:43:38.398Z,2.80
2019-02-12T07:50:01.956Z,2.90
2019-02-12T07:52:42.012Z,2.90
2019-02-12T07:55:22.167Z,2.90
2019-02-12T07:58:01.904Z,3.00
2019-02-12T08:00:43.078Z,3.00
2019-02-12T08:03:23.446Z,2.90
2019-02-12T08:06:03.174Z,2.90
2019-02-12T08:08:43.356Z,2.90
2019-02-12T08:11:23.183Z,2.90
2019-02-12T08:14:03.106Z,3.00
2019-02-12T08:16:43.072Z,3.00
2019-02-12T08:19:23.319Z,3.10
2019-02-12T08:22:03.216Z,3.30
2019-02-12T08:24:43.198Z,3.30
2019-02-12T08:27:23.516Z,3.40
2019-02-12T08:30:03.681Z,3.50
2019-02-12T08:32:43.974Z,3.60
2019-02-12T08:35:23.947Z,3.60
2019-02-12T08:38:04.347Z,3.60
2019-02-12T08:40:44.268Z,3.70
2019-02-12T08:43:24.363Z,3.80
2019-02-12T08:46:05.432Z,3.90
2019-02-12T08:48:45.807Z,4.10
2019-02-12T08:51:25.786Z,4.20
2019-02-12T08:54:06.084Z,4.30
2019-02-12T08:56:46.270Z,4.30
2019-02-12T08:59:25.938Z,4.50
2019-02-12T09:02:06.184Z,4.80
2019-02-12T09:04:46.155Z,4.90
2019-02-12T09:07:26.212Z,5.10
2019-02-12T09:10:06.291Z,5.30
2019-02-12T09:12:46.277Z,5.60
2019-02-12T09:15:26.438Z,5.50
2019-02-12T09:18:39.325Z,5.70
2019-02-12T09:21:47.631Z,5.90
2019-02-12T09:24:27.445Z,5.90
2019-02-12T09:27:07.475Z,5.80
2019-02-12T09:29:47.562Z,5.90
2019-02-12T09:32:27.269Z,6.10
2019-02-12T09:35:07.511Z,6.20
2019-02-12T09:37:47.491Z,6.30
2019-02-12T09:40:27.691Z,6.20
2019-02-12T09:43:07.284Z,6.20
2019-02-12T09:45:47.437Z,6.20
2019-02-12T09:48:55.275Z,6.30
2019-02-12T09:52:01.748Z,6.10
2019-02-12T09:54:42.041Z,6.10
2019-02-12T09:57:21.919Z,5.80
2019-02-12T10:00:02.365Z,5.90
2019-02-12T10:02:42.111Z,6.10
2019-02-12T10:05:22.086Z,6.10
2019-02-12T10:08:03.371Z,6.10
2019-02-12T10:13:32.583Z,6.20
2019-02-12T10:16:12.484Z,6.60
2019-02-12T10:18:52.768Z,6.90
2019-02-12T10:21:33.062Z,7.20
2019-02-12T10:24:19.859Z,7.50
2019-02-12T10:26:55.234Z,7.50
2019-02-12T10:29:35.273Z,7.40
2019-02-12T10:32:15.401Z,7.00
2019-02-12T10:34:55.024Z,7.20
2019-02-12T10:37:35.386Z,6.90
2019-02-12T10:40:16.313Z,6.90
2019-02-12T10:42:56.591Z,7.10
2019-02-12T10:45:36.663Z,6.80
2019-02-12T10:48:17.984Z,6.90
2019-02-12T10:50:57.900Z,6.80
2019-02-12T10:53:37.913Z,6.80
2019-02-12T10:56:18.042Z,6.90
2019-02-12T10:58:57.983Z,6.70
2019-02-12T11:01:38.032Z,6.40
2019-02-12T11:04:18.132Z,6.40
2019-02-12T11:06:57.849Z,6.40
2019-02-12T11:09:38.109Z,6.50
2019-02-12T11:12:18.186Z,6.60
2019-02-12T11:14:57.803Z,6.30
2019-02-12T11:17:37.902Z,6.50
2019-02-12T11:20:17.639Z,6.40
2019-02-12T11:22:57.964Z,6.50
2019-02-12T11:25:38.333Z,6.30
2019-02-12T11:30:57.796Z,6.50
2019-02-12T11:33:37.751Z,6.60
2019-02-12T11:36:17.869Z,6.60
2019-02-12T11:38:57.706Z,6.60
2019-02-12T11:41:37.839Z,6.60
2019-02-12T11:44:20.183Z,6.50
2019-02-12T11:47:03.154Z,6.70
2019-02-12T11:49:43.251Z,6.70
2019-02-12T11:52:23.528Z,6.80
2019-02-12T11:55:03.634Z,7.10
2019-02-12T11:57:43.475Z,6.90
2019-02-12T12:00:27.376Z,6.80
2019-02-12T12:03:07.203Z,6.80
2019-02-12T12:05:47.364Z,6.90
2019-02-12T12:08:27.222Z,7.10
2019-02-12T12:11:07.169Z,7.20
2019-02-12T12:13:47.463Z,7.60
2019-02-12T12:16:27.092Z,7.50
2019-02-12T12:19:07.277Z,7.20
2019-02-12T12:24:37.319Z,7.40
2019-02-12T12:27:17.362Z,7.70
2019-02-12T12:29:57.492Z,8.00
2019-02-12T12:32:37.173Z,8.40
2019-02-12T12:35:17.141Z,8.50
2019-02-12T12:37:57.240Z,8.30
2019-02-12T12:40:37.426Z,8.10
2019-02-12T12:43:18.004Z,8.60
2019-02-12T12:45:57.801Z,8.50
2019-02-12T12:48:38.082Z,8.20
2019-02-12T12:51:18.138Z,8.30
2019-02-12T12:53:58.108Z,8.10
2019-02-12T12:56:38.471Z,8.20
2019-02-12T12:59:18.558Z,8.20
2019-02-12T13:02:02.678Z,8.50
2019-02-12T13:04:30.413Z,8.60
2019-02-12T13:07:17.581Z,8.80
2019-02-12T13:09:57.615Z,8.80
2019-02-12T13:12:38.051Z,9.40
2019-02-12T13:18:08.218Z,11.40
2019-02-12T13:20:47.900Z,11.00
2019-02-12T13:23:27.991Z,10.80
2019-02-12T13:26:07.929Z,10.50
2019-02-12T13:28:47.909Z,9.80
2019-02-12T13:31:27.916Z,9.30
2019-02-12T13:34:08.120Z,9.10
2019-02-12T13:36:48.345Z,8.70
2019-02-12T13:39:28.147Z,8.70
2019-02-12T13:42:08.491Z,8.60
2019-02-12T13:44:48.538Z,9.00
2019-02-12T13:47:29.627Z,9.60
2019-02-12T13:50:09.640Z,10.00
2019-02-12T13:52:49.588Z,10.30
2019-02-12T13:55:29.881Z,11.40
2019-02-12T13:58:10.086Z,11.80
2019-02-12T14:00:49.908Z,11.80
2019-02-12T14:06:06.767Z,11.00
2019-02-12T14:08:51.209Z,10.30
2019-02-12T14:11:30.850Z,10.40
2019-02-12T14:14:11.130Z,10.80
2019-02-12T14:16:51.143Z,11.30
2019-02-12T14:19:31.820Z,11.80
2019-02-12T14:22:11.401Z,11.50
2019-02-12T14:24:51.267Z,11.80
2019-02-12T14:27:31.153Z,12.60
2019-02-12T14:30:11.390Z,12.80
2019-02-12T14:32:52.633Z,12.60
2019-02-12T14:35:32.943Z,12.40
2019-02-12T14:40:52.930Z,11.30
2019-02-12T14:43:33.055Z,10.80
2019-02-12T14:46:13.356Z,11.10
2019-02-12T14:48:53.252Z,10.70
2019-02-12T14:51:33.774Z,10.10
2019-02-12T14:54:13.922Z,9.90
2019-02-12T14:56:54.016Z,9.10
2019-02-12T14:59:33.882Z,9.20
2019-02-12T15:02:14.210Z,9.30
2019-02-12T15:05:00.517Z,9.20
2019-02-12T15:07:37.496Z,9.30
2019-02-12T15:10:17.365Z,9.10
2019-02-12T15:12:57.612Z,9.00
2019-02-12T15:15:38.279Z,8.80
2019-02-12T15:18:18.158Z,8.70
2019-02-12T15:20:58.003Z,8.60
2019-02-12T15:23:38.023Z,8.50
2019-02-12T15:26:17.556Z,8.20
2019-02-12T15:28:57.646Z,8.20
2019-02-12T15:31:37.807Z,8.20
2019-02-12T15:34:17.865Z,8.20
2019-02-12T15:36:57.775Z,8.90
2019-02-12T15:39:37.616Z,9.50
2019-02-12T15:42:28.337Z,9.80
2019-02-12T15:45:08.327Z,10.00
2019-02-12T15:47:48.480Z,9.80
2019-02-12T15:50:28.677Z,9.30
2019-02-12T15:53:08.883Z,9.00
2019-02-12T15:55:51.343Z,8.60
2019-02-12T15:58:30.871Z,8.30
2019-02-12T16:01:11.350Z,8.20
2019-02-12T16:03:51.962Z,8.10
2019-02-12T16:09:16.174Z,7.80
2019-02-12T16:11:56.537Z,7.80
2019-02-12T16:14:37.261Z,7.60
2019-02-12T16:17:16.833Z,7.60
2019-02-12T16:19:56.803Z,7.40
2019-02-12T16:22:37.065Z,7.20
2019-02-12T16:25:16.967Z,7.10
2019-02-12T16:27:56.883Z,6.90
2019-02-12T16:30:34.976Z,6.90
2019-02-12T16:33:21.897Z,6.90
2019-02-12T16:36:02.205Z,6.80
2019-02-12T16:38:41.616Z,6.80
2019-02-12T16:41:21.724Z,6.70
2019-02-12T16:44:01.920Z,6.60
2019-02-12T16:46:41.795Z,6.40
2019-02-12T16:49:21.641Z,6.30
2019-02-12T16:52:01.725Z,6.20
2019-02-12T16:54:42.420Z,6.00
2019-02-12T16:57:22.788Z,5.80
2019-02-12T17:00:04.292Z,5.70
2019-02-12T17:02:46.706Z,5.50
2019-02-12T17:05:26.311Z,5.50
2019-02-12T17:08:06.321Z,5.60
2019-02-12T17:10:46.699Z,5.50
2019-02-12T17:13:26.401Z,5.40
2019-02-12T17:16:06.450Z,5.30
2019-02-12T17:18:46.111Z,5.30
2019-02-12T17:21:26.485Z,5.20
2019-02-12T17:24:06.384Z,5.10
2019-02-12T17:26:46.100Z,5.00
2019-02-12T17:29:26.515Z,5.00
2019-02-12T17:32:06.528Z,4.90
2019-02-12T17:34:46.687Z,4.80
2019-02-12T17:37:26.813Z,4.70
2019-02-12T17:42:52.976Z,4.40
2019-02-12T17:45:33.231Z,4.30
2019-02-12T17:48:12.624Z,4.10
2019-02-12T17:50:53.111Z,4.00
2019-02-12T17:53:33.271Z,4.00
2019-02-12T17:56:15.801Z,4.10
2019-02-12T17:58:43.514Z,4.10
2019-02-12T18:01:11.748Z,4.00
2019-02-12T18:03:40.056Z,3.90
2019-02-12T18:06:33.330Z,3.90
2019-02-12T18:09:13.691Z,4.00
2019-02-12T18:14:34.238Z,3.90
2019-02-12T18:17:18.313Z,3.80
2019-02-12T18:19:58.629Z,3.80
2019-02-12T18:22:38.660Z,3.80
2019-02-12T18:25:18.642Z,3.90
2019-02-12T18:27:59.033Z,3.80
2019-02-12T18:30:39.279Z,3.90
2019-02-12T18:33:19.209Z,3.80
2019-02-12T18:35:59.319Z,3.80
2019-02-12T18:38:39.501Z,3.90
2019-02-12T18:41:19.652Z,3.80
2019-02-12T18:43:59.858Z,3.80
2019-02-12T18:46:39.692Z,3.70
2019-02-12T18:49:20.271Z,3.70
2019-02-12T18:52:00.244Z,3.70
2019-02-12T18:54:40.411Z,3.60
2019-02-12T18:57:20.415Z,3.40
2019-02-12T19:00:00.533Z,3.30
2019-02-12T19:02:40.648Z,3.30
2019-02-12T19:05:20.713Z,3.30
2019-02-12T19:08:00.636Z,3.20
2019-02-12T19:10:41.360Z,3.20
2019-02-12T19:13:21.823Z,3.10
2019-02-12T19:16:01.780Z,3.00
2019-02-12T19:18:42.711Z,2.90
2019-02-12T19:21:22.472Z,2.70
2019-02-12T19:24:02.581Z,2.60
2019-02-12T19:26:49.817Z,2.50
2019-02-12T19:29:24.834Z,2.40
2019-02-12T19:32:04.965Z,2.30
2019-02-12T19:34:44.804Z,2.30
2019-02-12T19:37:24.873Z,2.40
2019-02-12T19:40:04.983Z,2.30
2019-02-12T19:42:45.935Z,2.20
2019-02-12T19:45:27.391Z,2.20
2019-02-12T19:48:07.333Z,2.20
2019-02-12T19:50:47.305Z,2.10
2019-02-12T19:53:27.364Z,2.10
2019-02-12T19:56:07.519Z,2.00
2019-02-12T19:58:47.667Z,2.00
2019-02-12T20:01:28.849Z,2.00
2019-02-12T20:04:09.175Z,2.10
2019-02-12T20:06:47.413Z,2.00
2019-02-12T20:09:34.222Z,2.00
2019-02-12T20:12:14.471Z,1.90
2019-02-12T20:14:54.723Z,2.00
2019-02-12T20:17:34.726Z,2.10
2019-02-12T20:20:15.193Z,2.10
2019-02-12T20:22:54.841Z,2.10
2019-02-12T20:25:35.136Z,2.20
2019-02-12T20:28:16.772Z,2.10
2019-02-12T20:30:56.917Z,2.00
2019-02-12T20:33:36.649Z,2.00
2019-02-12T20:36:16.637Z,2.10
2019-02-12T20:38:56.905Z,2.10
2019-02-12T20:41:37.486Z,2.00
2019-02-12T20:44:17.487Z,2.10
2019-02-12T20:46:57.681Z,2.00
2019-02-12T20:49:37.823Z,2.00
2019-02-12T20:52:17.926Z,1.90
2019-02-12T20:54:57.652Z,1.80
2019-02-12T20:57:37.722Z,1.90
2019-02-12T21:00:18.497Z,1.90
2019-02-12T21:02:58.466Z,1.90
2019-02-12T21:05:38.486Z,1.90
2019-02-12T21:08:18.829Z,1.90
2019-02-12T21:10:58.621Z,1.90
2019-02-12T21:13:38.846Z,1.90
2019-02-12T21:16:19.684Z,1.90
2019-02-12T21:19:00.195Z,1.90
2019-02-12T21:21:39.908Z,1.80
2019-02-12T21:24:19.915Z,1.60
2019-02-12T21:26:59.954Z,1.50
2019-02-12T21:29:40.972Z,1.50
2019-02-12T21:32:21.291Z,1.40
2019-02-12T21:35:01.302Z,1.50
2019-02-12T21:37:41.196Z,1.40
2019-02-12T21:40:22.114Z,1.50
2019-02-12T21:43:01.853Z,1.50
2019-02-12T21:45:46.889Z,1.40
2019-02-12T21:48:27.987Z,1.40
2019-02-12T21:51:08.042Z,1.30
2019-02-12T21:53:48.705Z,1.30
2019-02-12T21:56:28.234Z,1.30
2019-02-12T21:59:09.108Z,1.40
2019-02-12T22:01:49.502Z,1.40
2019-02-12T22:04:29.288Z,1.30
2019-02-12T22:07:09.757Z,1.20
2019-02-12T22:09:49.809Z,1.10
2019-02-12T22:12:30.086Z,1.10
2019-02-12T22:15:11.002Z,1.10
2019-02-12T22:17:51.582Z,1.00
2019-02-12T22:20:31.504Z,1.00
2019-02-12T22:23:11.593Z,1.10
2019-02-12T22:25:51.868Z,1.10
2019-02-12T22:28:31.735Z,1.10
2019-02-12T22:31:11.886Z,0.90
2019-02-12T22:33:52.281Z,1.00
2019-02-12T22:36:32.152Z,0.90
2019-02-12T22:39:12.184Z,0.90
2019-02-12T22:41:52.480Z,0.90
2019-02-12T22:44:33.329Z,1.00
2019-02-12T22:47:13.822Z,0.90
2019-02-12T22:49:54.098Z,0.80
2019-02-12T22:52:38.760Z,0.90
2019-02-12T22:55:18.749Z,0.90
2019-02-12T22:57:58.786Z,1.00
2019-02-12T23:00:58.703Z,1.00
2019-02-12T23:03:39.963Z,1.00
2019-02-12T23:06:24.006Z,1.00
2019-02-12T23:09:07.040Z,1.00
2019-02-12T23:11:52.888Z,0.90
2019-02-12T23:14:34.578Z,0.70
2019-02-12T23:17:14.389Z,0.70
2019-02-12T23:19:54.389Z,0.60
2019-02-12T23:22:33.744Z,0.70
2019-02-12T23:25:15.181Z,0.70
2019-02-12T23:27:46.954Z,0.70
2019-02-12T23:30:40.069Z,0.80
2019-02-12T23:33:20.105Z,0.80
2019-02-12T23:36:00.187Z,0.80
2019-02-12T23:38:39.905Z,0.70
2019-02-12T23:41:20.045Z,0.70
2019-02-12T23:44:00.003Z,0.70
2019-02-12T23:46:40.274Z,0.70
2019-02-12T23:49:20.360Z,0.60
2019-02-12T23:52:00.050Z,0.80
2019-02-12T23:54:40.284Z,0.80
2019-02-12T23:57:20.771Z,0.70
